Time;durP1;ratioP1;P1;durP2;ratioP2;P2;SDS_P1;SDS_P2;PMS_P1;PMS_P2;Temp;Humidity;BMP_temperature;BMP_pressure;BME280_temperature;BME280_humidity;BME280_pressure;Samples;Min_cycle;Max_cycle;Signal;HPM_P1;HPM_P2
2022/03/03 00:01:39;;;;;;;17.40;10.35;;;7.00;49.40;;;;;;5117064;28;20028;-68
2022/03/03 00:04:06;;;;;;;17.80;10.40;;;7.00;49.50;;;;;;5116940;28;20091;-68
2022/03/03 00:06:32;;;;;;;18.77;11.57;;;7.00;49.70;;;;;;5116996;28;20020;-68
2022/03/03 00:08:57;;;;;;;20.60;11.15;;;6.90;49.90;;;;;;5116919;28;20016;-68
2022/03/03 00:11:23;;;;;;;18.10;9.88;;;6.90;50.00;;;;;;5116893;28;20095;-68
2022/03/03 00:13:49;;;;;;;17.55;10.10;;;6.90;50.20;;;;;;5116931;28;20132;-68
2022/03/03 00:16:15;;;;;;;16.65;10.18;;;6.90;50.30;;;;;;5116752;28;20040;-68
2022/03/03 00:18:40;;;;;;;17.50;10.48;;;6.80;50.30;;;;;;5116727;28;20070;-68
2022/03/03 00:21:06;;;;;;;20.52;10.88;;;6.80;50.20;;;;;;5116696;28;20024;-68
2022/03/03 00:23:32;;;;;;;19.67;10.30;;;6.80;49.90;;;;;;5116593;28;20062;-68
2022/03/03 00:25:58;;;;;;;17.17;10.70;;;6.80;49.90;;;;;;5098571;28;20020;-68
2022/03/03 00:28:24;;;;;;;20.83;11.23;;;6.60;50.50;;;;;;5116551;28;20021;-68
2022/03/03 00:30:49;;;;;;;20.92;11.95;;;6.60;51.10;;;;;;5116505;28;20079;-68
2022/03/03 00:33:15;;;;;;;19.35;11.13;;;6.60;51.40;;;;;;5116597;28;20035;-68
2022/03/03 00:35:41;;;;;;;21.08;11.40;;;6.60;51.10;;;;;;5116400;28;20114;-68
2022/03/03 00:38:08;;;;;;;33.45;11.82;;;6.60;50.90;;;;;;5116362;28;20027;-68
2022/03/03 00:40:34;;;;;;;19.08;11.35;;;6.60;50.90;;;;;;5116333;28;20024;-68
2022/03/03 00:43:00;;;;;;;19.83;11.35;;;6.60;51.20;;;;;;5116195;28;20055;-68
2022/03/03 00:45:26;;;;;;;20.27;10.60;;;6.50;51.20;;;;;;5116126;28;20028;-69
2022/03/03 00:47:52;;;;;;;19.40;10.90;;;6.40;51.20;;;;;;5116245;28;20043;-68
2022/03/03 00:50:18;;;;;;;18.40;11.05;;;6.40;51.60;;;;;;5116265;28;20394;-68
2022/03/03 00:52:43;;;;;;;19.20;10.68;;;6.40;51.80;;;;;;5115873;28;20020;-68
2022/03/03 00:55:09;;;;;;;20.05;11.55;;;6.40;51.80;;;;;;5116064;28;20048;-68
2022/03/03 00:57:35;;;;;;;20.42;11.57;;;6.40;51.80;;;;;;5115998;28;20036;-68
2022/03/03 01:00:02;;;;;;;19.38;11.02;;;6.30;51.90;;;;;;5115951;28;20050;-68
2022/03/03 01:02:28;;;;;;;21.23;11.20;;;6.30;51.70;;;;;;5115804;28;20032;-68
2022/03/03 01:04:53;;;;;;;18.23;10.60;;;6.40;51.50;;;;;;5115777;28;20036;-68
2022/03/03 01:07:19;;;;;;;21.45;10.48;;;6.40;51.30;;;;;;5115807;28;20035;-68
2022/03/03 01:09:44;;;;;;;19.92;11.10;;;6.20;51.20;;;;;;5115775;28;20032;-68
2022/03/03 01:12:10;;;;;;;20.60;11.18;;;6.00;51.60;;;;;;5115710;28;20043;-68
2022/03/03 01:14:36;;;;;;;18.38;10.98;;;6.00;51.80;;;;;;5115672;28;20036;-68
2022/03/03 01:17:01;;;;;;;20.15;11.35;;;5.90;51.90;;;;;;5115609;28;20099;-68
2022/03/03 01:19:27;;;;;;;20.73;11.25;;;5.80;52.20;;;;;;5115601;28;20028;-68
2022/03/03 01:21:53;;;;;;;19.90;11.77;;;5.90;52.50;;;;;;5115513;28;20036;-68
2022/03/03 01:24:18;;;;;;;16.92;9.75;;;5.70;52.40;;;;;;5115336;28;20091;-68
2022/03/03 01:26:44;;;;;;;20.88;10.88;;;5.70;52.70;;;;;;5115432;28;20066;-68
2022/03/03 01:29:10;;;;;;;21.10;11.20;;;5.60;53.10;;;;;;5115404;28;20027;-68
2022/03/03 01:31:35;;;;;;;20.40;11.25;;;5.60;52.70;;;;;;5115361;28;20111;-68
2022/03/03 01:34:01;;;;;;;17.55;10.60;;;5.70;52.70;;;;;;5115313;28;20077;-68
2022/03/03 01:36:27;;;;;;;19.83;10.75;;;5.60;53.00;;;;;;5115235;28;20082;-68
2022/03/03 01:38:52;;;;;;;21.33;11.07;;;5.60;53.40;;;;;;5097224;28;20035;-68
2022/03/03 01:41:18;;;;;;;20.95;11.13;;;5.60;53.50;;;;;;5115147;28;20040;-69
2022/03/03 01:43:43;;;;;;;18.00;10.95;;;5.60;53.40;;;;;;5115145;28;20024;-68
2022/03/03 01:46:09;;;;;;;20.17;11.57;;;5.70;53.40;;;;;;5114916;28;20095;-68
2022/03/03 01:48:35;;;;;;;20.02;11.40;;;5.70;53.30;;;;;;5097077;28;20044;-68
2022/03/03 01:51:00;;;;;;;18.67;10.48;;;5.70;53.40;;;;;;5114955;28;20054;-68
2022/03/03 01:53:26;;;;;;;21.77;10.52;;;5.70;53.50;;;;;;5114913;28;20091;-68
2022/03/03 01:55:52;;;;;;;18.15;10.70;;;5.70;53.40;;;;;;5114896;28;20035;-68
2022/03/03 01:58:18;;;;;;;20.48;11.00;;;5.60;53.30;;;;;;5114840;28;20023;-68
2022/03/03 02:00:44;;;;;;;19.75;9.68;;;5.60;53.60;;;;;;5114896;28;20032;-68
2022/03/03 02:03:10;;;;;;;17.95;9.95;;;5.60;53.80;;;;;;5114023;28;20028;-68
2022/03/03 02:05:37;;;;;;;20.90;10.40;;;5.60;53.80;;;;;;5114693;28;20082;-68
2022/03/03 02:08:03;;;;;;;19.80;10.32;;;5.60;54.00;;;;;;5114607;28;20024;-68
2022/03/03 02:10:31;;;;;;;19.45;10.57;;;5.50;54.20;;;;;;5096644;28;20050;-68
2022/03/03 02:12:57;;;;;;;16.63;10.43;;;5.60;54.40;;;;;;5114540;28;20024;-68
2022/03/03 02:15:23;;;;;;;20.65;10.63;;;5.60;54.40;;;;;;5096643;28;20130;-68
2022/03/03 02:17:50;;;;;;;19.58;9.82;;;5.60;54.40;;;;;;5114475;28;20020;-68
2022/03/03 02:20:27;;;;;;;21.58;10.27;;;5.50;54.40;;;;;;5114436;28;20016;-68
2022/03/03 02:22:55;;;;;;;19.00;9.35;;;5.50;54.40;;;;;;5114255;28;20084;-68
2022/03/03 02:25:22;;;;;;;18.92;10.48;;;5.50;54.30;;;;;;5114245;28;20020;-68
2022/03/03 02:27:48;;;;;;;18.05;9.93;;;5.50;54.30;;;;;;5114284;28;20028;-68
2022/03/03 02:30:16;;;;;;;18.52;9.90;;;5.50;53.70;;;;;;5114195;28;20024;-68
2022/03/03 02:32:42;;;;;;;16.75;10.55;;;5.40;54.60;;;;;;5114169;28;20038;-68
2022/03/03 02:35:08;;;;;;;22.92;10.88;;;5.50;54.60;;;;;;5114150;28;20079;-68
2022/03/03 02:37:39;;;;;;;17.67;9.82;;;5.50;54.40;;;;;;5114089;28;20031;-68
2022/03/03 02:40:09;;;;;;;16.42;9.65;;;5.40;54.30;;;;;;5114101;28;20028;-68
2022/03/03 02:42:35;;;;;;;20.13;10.63;;;5.20;54.30;;;;;;5114026;28;20016;-68
2022/03/03 02:45:04;;;;;;;18.40;9.88;;;5.10;55.10;;;;;;5113890;28;20028;-68
2022/03/03 02:47:30;;;;;;;18.80;9.75;;;5.00;55.40;;;;;;5113789;28;20048;-68
2022/03/03 02:49:55;;;;;;;17.77;10.23;;;4.90;55.80;;;;;;5095949;28;20016;-68
2022/03/03 02:52:21;;;;;;;16.80;9.70;;;4.70;56.50;;;;;;5113850;28;20024;-68
2022/03/03 02:54:47;;;;;;;20.88;10.48;;;4.60;56.50;;;;;;5113819;28;20051;-68
2022/03/03 02:59:57;;;;;;;18.90;10.00;;;4.60;56.40;;;;;;5113936;28;20062;-68
2022/03/03 03:02:22;;;;;;;19.83;10.60;;;4.70;56.50;;;;;;5113693;28;20044;-68
2022/03/03 03:04:48;;;;;;;18.13;10.18;;;4.70;56.20;;;;;;5113611;28;20036;-68
2022/03/03 03:07:14;;;;;;;17.67;10.57;;;4.80;56.10;;;;;;5095896;28;20013;-68
2022/03/03 03:09:39;;;;;;;20.13;11.00;;;4.90;55.80;;;;;;5113581;28;20024;-68
2022/03/03 03:12:05;;;;;;;17.13;10.43;;;5.00;55.70;;;;;;5113550;28;20044;-68
2022/03/03 03:14:31;;;;;;;19.70;9.85;;;4.90;56.50;;;;;;5094703;28;20028;-68
2022/03/03 03:16:56;;;;;;;19.65;10.93;;;4.80;55.40;;;;;;5113496;28;20043;-68
2022/03/03 03:19:22;;;;;;;21.02;10.32;;;4.80;55.90;;;;;;5113479;28;20031;-68
2022/03/03 03:21:48;;;;;;;21.42;10.15;;;4.80;56.30;;;;;;5095565;28;20418;-68
2022/03/03 03:24:14;;;;;;;19.98;10.35;;;4.80;56.10;;;;;;5113278;28;20035;-68
2022/03/03 03:26:40;;;;;;;24.13;10.43;;;4.80;56.00;;;;;;5095578;28;20527;-68
2022/03/03 03:29:05;;;;;;;21.92;9.75;;;4.90;56.10;;;;;;5113409;28;20051;-68
2022/03/03 03:31:31;;;;;;;18.65;9.70;;;4.90;55.90;;;;;;5113351;28;20028;-68
2022/03/03 03:33:57;;;;;;;20.38;10.60;;;4.90;55.90;;;;;;5113309;28;20016;-68
2022/03/03 03:36:22;;;;;;;18.40;10.20;;;4.90;55.80;;;;;;5113296;28;20514;-68
2022/03/03 03:38:48;;;;;;;17.35;10.07;;;5.00;55.60;;;;;;5095340;28;20036;-68
2022/03/03 03:41:14;;;;;;;21.33;10.93;;;5.00;55.50;;;;;;5113231;28;20028;-68
2022/03/03 03:43:39;;;;;;;17.88;10.13;;;5.00;55.50;;;;;;5113155;28;20039;-68
2022/03/03 03:46:05;;;;;;;18.55;10.95;;;5.00;55.30;;;;;;5113058;28;20052;-68
2022/03/03 03:48:31;;;;;;;19.48;10.48;;;5.00;55.10;;;;;;5113212;28;20024;-68
2022/03/03 03:50:57;;;;;;;19.20;10.90;;;5.00;55.10;;;;;;5113203;28;20024;-68
2022/03/03 03:53:23;;;;;;;21.33;10.43;;;4.90;55.20;;;;;;5113138;28;20040;-68
2022/03/03 03:55:49;;;;;;;21.48;10.50;;;5.00;55.20;;;;;;5113121;28;20054;-68
2022/03/03 03:58:15;;;;;;;19.65;10.52;;;4.90;55.00;;;;;;5113106;28;20058;-68
2022/03/03 04:00:41;;;;;;;22.23;11.98;;;4.90;55.30;;;;;;5095170;28;20060;-68
2022/03/03 04:03:06;;;;;;;19.92;11.15;;;4.80;55.50;;;;;;5112990;28;20034;-68
2022/03/03 04:05:32;;;;;;;19.45;10.90;;;4.80;55.70;;;;;;5113040;28;20024;-68
2022/03/03 04:07:58;;;;;;;20.02;9.93;;;4.80;55.80;;;;;;5113012;28;20390;-68
2022/03/03 04:10:23;;;;;;;19.13;10.30;;;4.80;55.80;;;;;;5112940;28;20024;-68
2022/03/03 04:12:49;;;;;;;20.88;10.20;;;4.70;55.80;;;;;;5112984;28;20016;-68
2022/03/03 04:15:15;;;;;;;19.02;9.98;;;4.70;55.90;;;;;;5112963;28;20028;-68
2022/03/03 04:17:41;;;;;;;20.13;10.32;;;4.70;55.80;;;;;;5112916;28;20035;-68
2022/03/03 04:20:07;;;;;;;16.73;10.15;;;4.70;55.60;;;;;;5112932;28;20119;-68
2022/03/03 04:22:34;;;;;;;19.30;9.88;;;4.60;55.80;;;;;;5094895;28;20016;-68
2022/03/03 04:25:00;;;;;;;22.30;10.68;;;4.60;55.80;;;;;;5112727;28;20048;-68
2022/03/03 04:27:25;;;;;;;18.23;9.77;;;4.60;56.10;;;;;;5115859;28;20028;-68
2022/03/03 04:29:51;;;;;;;21.55;11.00;;;4.60;56.40;;;;;;5116568;28;20032;-68
2022/03/03 04:32:17;;;;;;;20.45;11.20;;;4.60;56.50;;;;;;5116536;28;20087;-68
2022/03/03 04:34:42;;;;;;;21.88;11.55;;;4.60;56.50;;;;;;5116458;28;20111;-68
2022/03/03 04:37:08;;;;;;;16.92;9.60;;;4.60;56.60;;;;;;5116470;28;20032;-68
2022/03/03 04:39:34;;;;;;;18.35;9.57;;;4.50;56.60;;;;;;5116391;28;20027;-68
2022/03/03 04:42:00;;;;;;;20.73;10.00;;;4.30;56.70;;;;;;5116354;28;20020;-68
2022/03/03 04:44:26;;;;;;;20.20;10.63;;;4.20;56.70;;;;;;5115968;28;20047;-68
2022/03/03 04:46:52;;;;;;;18.00;10.50;;;4.10;56.90;;;;;;5116021;28;20048;-68
2022/03/03 04:49:18;;;;;;;21.58;10.90;;;4.00;57.40;;;;;;5116196;28;20032;-68
2022/03/03 04:51:43;;;;;;;20.98;10.68;;;3.90;57.90;;;;;;5116133;28;20031;-68
2022/03/03 04:54:10;;;;;;;21.63;10.68;;;4.00;57.90;;;;;;5116155;28;20066;-68
2022/03/03 04:56:37;;;;;;;18.80;10.68;;;4.00;57.90;;;;;;5116046;28;20044;-68
2022/03/03 04:59:04;;;;;;;19.30;10.88;;;4.00;58.00;;;;;;5116023;28;20028;-68
2022/03/03 05:01:29;;;;;;;19.45;10.48;;;4.00;57.80;;;;;;5115993;28;20024;-68
2022/03/03 05:03:55;;;;;;;19.00;10.40;;;4.00;57.70;;;;;;5115847;28;20058;-68
2022/03/03 05:06:21;;;;;;;19.63;10.07;;;4.10;57.70;;;;;;5097989;28;20024;-68
2022/03/03 05:08:46;;;;;;;20.38;9.25;;;4.10;57.70;;;;;;5115712;28;20047;-68
2022/03/03 05:11:12;;;;;;;19.58;10.82;;;4.00;57.50;;;;;;5115954;28;20485;-68
2022/03/03 05:13:38;;;;;;;21.20;10.60;;;3.90;57.70;;;;;;5115750;28;20032;-68
2022/03/03 05:16:04;;;;;;;22.90;11.00;;;3.90;58.20;;;;;;5115693;28;20051;-68
2022/03/03 05:18:30;;;;;;;21.85;10.95;;;3.90;58.30;;;;;;5115737;28;20035;-68
2022/03/03 05:20:56;;;;;;;21.67;10.02;;;4.00;58.30;;;;;;5115705;28;20074;-68
2022/03/03 05:23:22;;;;;;;16.98;10.05;;;4.00;58.20;;;;;;5115478;28;20032;-68
2022/03/03 05:25:48;;;;;;;21.27;10.50;;;4.00;58.20;;;;;;5115423;28;20027;-68
2022/03/03 05:28:14;;;;;;;20.50;10.40;;;4.00;58.40;;;;;;5115461;28;20020;-68
2022/03/03 05:30:39;;;;;;;20.65;11.02;;;3.90;58.20;;;;;;5115416;28;20054;-68
2022/03/03 05:33:06;;;;;;;20.88;11.00;;;3.90;59.10;;;;;;5115363;28;20092;-68
2022/03/03 05:35:32;;;;;;;21.42;11.02;;;3.90;58.10;;;;;;5115356;28;20079;-68
2022/03/03 05:37:57;;;;;;;20.77;10.38;;;3.80;58.30;;;;;;5114357;28;20035;-68
2022/03/03 05:40:23;;;;;;;22.25;10.90;;;3.60;58.20;;;;;;5115199;28;20028;-68
2022/03/03 05:42:49;;;;;;;22.20;10.73;;;3.40;58.40;;;;;;5115265;28;20036;-68
2022/03/03 05:45:15;;;;;;;18.63;10.50;;;3.40;58.70;;;;;;5115096;28;20051;-68
2022/03/03 05:47:41;;;;;;;21.85;10.32;;;3.50;58.50;;;;;;5114953;28;20101;-68
2022/03/03 05:50:07;;;;;;;23.27;11.10;;;3.60;58.50;;;;;;5115024;28;20047;-68
2022/03/03 05:52:33;;;;;;;20.98;10.32;;;3.70;58.60;;;;;;5114895;28;20020;-68
2022/03/03 05:54:59;;;;;;;21.58;10.50;;;3.70;58.60;;;;;;5114853;28;20020;-68
2022/03/03 05:57:31;;;;;;;17.92;9.82;;;3.80;58.60;;;;;;5114859;28;20050;-68
2022/03/03 06:00:00;;;;;;;23.45;10.50;;;3.80;58.30;;;;;;5114910;28;20031;-68
2022/03/03 06:02:27;;;;;;;21.85;11.00;;;3.80;58.50;;;;;;5114673;28;20027;-68
2022/03/03 06:04:53;;;;;;;18.95;10.07;;;3.80;58.40;;;;;;5114626;28;20036;-68
2022/03/03 06:07:25;;;;;;;22.38;10.23;;;3.80;58.10;;;;;;5114732;28;20028;-68
2022/03/03 06:09:56;;;;;;;26.60;11.82;;;3.80;58.00;;;;;;5114738;28;20024;-68
2022/03/03 06:12:54;;;;;;;21.83;11.57;;;3.90;58.10;;;;;;5114628;28;20070;-68
2022/03/03 06:15:22;;;;;;;22.52;10.40;;;3.80;58.10;;;;;;5114571;28;20028;-68
2022/03/03 06:17:49;;;;;;;21.08;10.75;;;3.80;58.30;;;;;;5114489;28;20027;-68
2022/03/03 06:20:15;;;;;;;20.63;10.30;;;3.70;58.40;;;;;;5114437;28;20107;-68
2022/03/03 06:22:41;;;;;;;22.35;10.80;;;3.60;58.50;;;;;;5114363;28;20032;-68
2022/03/03 06:25:08;;;;;;;23.92;11.70;;;3.70;58.90;;;;;;5114233;28;20065;-68
2022/03/03 06:27:34;;;;;;;22.65;11.15;;;3.60;58.90;;;;;;5114325;28;20016;-68
2022/03/03 06:30:00;;;;;;;22.45;10.95;;;3.60;58.90;;;;;;5114320;28;20080;-68
2022/03/03 06:32:26;;;;;;;21.55;10.85;;;3.70;59.00;;;;;;5114276;28;20016;-68
2022/03/03 06:34:51;;;;;;;20.67;10.90;;;3.70;59.10;;;;;;5114197;28;20035;-68
2022/03/03 06:37:17;;;;;;;25.25;11.23;;;3.70;60.00;;;;;;5114148;28;20028;-68
2022/03/03 06:39:42;;;;;;;21.80;11.20;;;3.70;59.30;;;;;;5114099;28;20039;-68
2022/03/03 06:42:08;;;;;;;23.67;11.10;;;3.70;59.30;;;;;;5113988;28;20031;-68
2022/03/03 06:44:34;;;;;;;22.80;12.18;;;3.70;59.40;;;;;;5113983;28;20043;-68
2022/03/03 06:47:01;;;;;;;20.08;11.27;;;3.70;59.30;;;;;;5113805;28;20046;-68
2022/03/03 06:49:27;;;;;;;23.15;11.20;;;3.70;59.20;;;;;;5113689;28;20052;-68
2022/03/03 06:51:57;;;;;;;21.30;10.68;;;3.70;59.10;;;;;;5095920;28;20020;-68
2022/03/03 06:54:23;;;;;;;20.95;10.80;;;3.70;59.30;;;;;;5113856;28;20024;-65
2022/03/03 06:56:56;;;;;;;24.75;11.85;;;3.60;59.50;;;;;;5113737;28;20050;-65
2022/03/03 06:59:27;;;;;;;23.52;11.23;;;3.50;59.60;;;;;;5113746;28;20040;-66
2022/03/03 07:01:54;;;;;;;24.60;11.02;;;3.40;59.70;;;;;;5113676;28;20028;-65
2022/03/03 07:04:21;;;;;;;20.92;10.90;;;3.40;59.90;;;;;;5113517;28;20073;-66
2022/03/03 07:06:48;;;;;;;22.15;10.68;;;3.30;60.40;;;;;;5113536;28;20024;-65
2022/03/03 07:09:14;;;;;;;21.38;11.27;;;3.30;60.30;;;;;;5113627;28;20016;-65
2022/03/03 07:11:42;;;;;;;23.80;11.05;;;3.40;60.40;;;;;;5113410;28;20020;-65
2022/03/03 07:14:08;;;;;;;23.58;10.65;;;3.30;60.70;;;;;;5113560;28;20016;-65
2022/03/03 07:16:41;;;;;;;22.75;11.05;;;3.30;60.60;;;;;;5113500;28;20083;-66
2022/03/03 07:19:25;;;;;;;18.38;10.27;;;3.30;60.80;;;;;;5113586;28;20020;-65
2022/03/03 07:22:28;;;;;;;22.73;11.02;;;3.30;61.20;;;;;;5113583;28;20028;-65
2022/03/03 07:24:59;;;;;;;20.25;10.23;;;3.30;61.10;;;;;;5113216;28;20051;-65
2022/03/03 07:27:25;;;;;;;24.30;10.73;;;3.30;61.30;;;;;;5113392;28;20028;-65
2022/03/03 07:29:59;;;;;;;23.10;10.45;;;3.20;61.30;;;;;;5113368;28;20027;-66
2022/03/03 07:32:37;;;;;;;26.45;11.30;;;3.30;61.30;;;;;;5113280;28;20017;-66
2022/03/03 07:35:12;;;;;;;25.17;10.45;;;3.40;61.40;;;;;;5113352;28;20027;-65
2022/03/03 07:38:06;;;;;;;22.00;11.68;;;3.50;61.40;;;;;;5113290;28;20047;-66
2022/03/03 07:40:33;;;;;;;23.98;11.57;;;3.60;61.20;;;;;;5091425;28;20092;-65
2022/03/03 07:43:00;;;;;;;23.83;10.68;;;3.70;61.00;;;;;;5113258;28;20020;-65
2022/03/03 07:45:26;;;;;;;24.55;11.80;;;3.80;60.90;;;;;;5113173;28;20023;-66
2022/03/03 07:47:55;;;;;;;20.90;12.02;;;3.90;60.80;;;;;;5113098;28;20100;-65
2022/03/03 07:50:22;;;;;;;23.90;11.93;;;3.90;60.80;;;;;;5113186;28;20028;-65
2022/03/03 07:52:49;;;;;;;24.15;11.95;;;4.00;61.20;;;;;;5113137;28;20023;-65
2022/03/03 07:55:15;;;;;;;22.77;11.63;;;4.10;61.30;;;;;;5113097;28;20382;-66
2022/03/03 07:57:51;;;;;;;20.52;11.50;;;4.20;60.80;;;;;;5113101;28;20028;-66
2022/03/03 08:00:18;;;;;;;22.98;11.48;;;4.20;60.60;;;;;;5113228;28;20028;-65
2022/03/03 08:02:45;;;;;;;22.08;11.20;;;4.30;60.50;;;;;;5116753;28;20031;-65
2022/03/03 08:05:11;;;;;;;25.67;12.18;;;4.40;60.60;;;;;;5117004;28;20028;-65
2022/03/03 08:07:45;;;;;;;21.77;11.15;;;4.40;60.70;;;;;;5116961;28;20027;-65
2022/03/03 08:10:13;;;;;;;22.13;11.60;;;4.50;60.80;;;;;;5116943;28;20024;-66
2022/03/03 08:12:40;;;;;;;22.65;11.68;;;4.60;60.90;;;;;;5116834;28;20020;-65
2022/03/03 08:15:08;;;;;;;23.98;11.65;;;4.70;60.90;;;;;;5116870;28;20024;-68
2022/03/03 08:17:34;;;;;;;21.83;11.25;;;4.80;60.90;;;;;;5098729;28;20032;-68
2022/03/03 08:20:06;;;;;;;21.73;11.50;;;4.90;60.40;;;;;;5116723;28;20047;-68
2022/03/03 08:22:32;;;;;;;21.13;11.68;;;5.00;60.70;;;;;;5116817;28;20020;-68
2022/03/03 08:24:58;;;;;;;20.98;11.18;;;5.10;60.50;;;;;;5116530;28;20086;-68
2022/03/03 08:27:26;;;;;;;24.50;10.90;;;5.20;60.70;;;;;;5116609;28;20031;-68
2022/03/03 08:29:53;;;;;;;19.58;10.43;;;5.40;60.60;;;;;;5116569;28;20054;-68
2022/03/03 08:32:20;;;;;;;20.48;11.57;;;5.50;60.50;;;;;;5116497;28;20048;-68
2022/03/03 08:35:04;;;;;;;21.13;11.10;;;5.70;59.60;;;;;;5116404;28;20024;-69
2022/03/03 08:37:35;;;;;;;21.80;11.25;;;5.90;59.80;;;;;;5116538;28;20054;-69
2022/03/03 08:40:02;;;;;;;24.85;11.70;;;6.10;59.20;;;;;;5116531;28;20024;-69
2022/03/03 08:42:34;;;;;;;21.83;11.60;;;6.20;59.60;;;;;;5116271;28;20026;-68
2022/03/03 08:45:04;;;;;;;23.63;11.50;;;6.40;58.70;;;;;;5116209;28;20046;-68
2022/03/03 08:47:31;;;;;;;20.35;11.60;;;6.60;57.70;;;;;;5116132;28;20410;-69
2022/03/03 08:49:59;;;;;;;24.55;10.95;;;6.60;56.60;;;;;;5116162;28;20024;-68
2022/03/03 08:52:27;;;;;;;20.58;11.07;;;6.70;56.20;;;;;;5116269;28;20099;-68
2022/03/03 08:54:53;;;;;;;19.90;10.57;;;6.90;56.50;;;;;;5116073;28;20020;-68
2022/03/03 08:57:18;;;;;;;21.73;11.57;;;7.00;55.20;;;;;;5116071;28;20034;-68
2022/03/03 08:59:44;;;;;;;22.98;10.70;;;7.20;54.90;;;;;;5098183;28;20055;-68
2022/03/03 09:02:13;;;;;;;21.13;10.10;;;7.20;53.40;;;;;;5115944;28;20032;-68
2022/03/03 09:04:39;;;;;;;24.05;12.35;;;7.20;54.10;;;;;;5115818;28;20028;-68
2022/03/03 09:07:05;;;;;;;18.23;10.15;;;7.30;54.20;;;;;;5115869;28;20024;-68
2022/03/03 09:09:30;;;;;;;21.58;10.77;;;7.40;54.40;;;;;;5115802;28;20024;-68
2022/03/03 09:11:56;;;;;;;22.45;10.85;;;7.50;53.80;;;;;;5115714;28;20024;-68
2022/03/03 09:14:22;;;;;;;21.55;10.38;;;7.70;53.70;;;;;;5115713;28;20103;-68
2022/03/03 09:16:48;;;;;;;19.95;11.70;;;7.80;53.00;;;;;;5115651;28;20039;-69
2022/03/03 09:19:13;;;;;;;21.13;11.13;;;7.90;52.10;;;;;;5115610;28;20106;-68
2022/03/03 09:21:40;;;;;;;19.30;10.70;;;7.90;52.30;;;;;;5115539;28;20028;-68
2022/03/03 09:24:06;;;;;;;20.17;11.20;;;8.00;52.20;;;;;;5115362;28;20024;-69
2022/03/03 09:26:32;;;;;;;19.98;10.57;;;8.10;52.90;;;;;;5115460;28;20084;-68
2022/03/03 09:28:58;;;;;;;17.58;9.65;;;8.30;52.70;;;;;;5115438;28;20031;-69
2022/03/03 09:31:23;;;;;;;17.38;9.52;;;8.40;52.30;;;;;;5115371;28;20368;-68
2022/03/03 09:33:50;;;;;;;19.15;11.07;;;8.50;51.90;;;;;;5115168;28;20028;-68
2022/03/03 09:36:18;;;;;;;19.67;10.80;;;8.60;50.40;;;;;;5115318;28;20020;-68
2022/03/03 09:38:44;;;;;;;21.05;11.45;;;8.70;51.60;;;;;;5115231;28;20024;-68
2022/03/03 09:41:09;;;;;;;19.17;9.10;;;8.80;51.00;;;;;;5115188;28;20391;-68
2022/03/03 09:43:35;;;;;;;19.05;9.88;;;8.80;48.90;;;;;;5115049;28;20084;-68
2022/03/03 09:46:01;;;;;;;20.15;10.27;;;8.90;46.80;;;;;;5114947;28;20036;-69
2022/03/03 09:48:26;;;;;;;19.55;9.98;;;8.90;45.30;;;;;;5115027;28;20054;-68
2022/03/03 09:50:52;;;;;;;17.77;9.52;;;8.90;47.50;;;;;;5114991;28;20050;-68
2022/03/03 09:53:18;;;;;;;19.40;10.57;;;9.00;45.10;;;;;;5114952;28;20022;-68
2022/03/03 09:55:46;;;;;;;20.65;10.95;;;9.00;43.60;;;;;;5114912;28;20016;-68
2022/03/03 09:58:13;;;;;;;16.88;9.50;;;9.00;43.90;;;;;;5114811;28;20048;-68
2022/03/03 10:00:41;;;;;;;19.05;10.93;;;9.00;44.30;;;;;;5114865;28;20043;-68
2022/03/03 10:03:15;;;;;;;20.52;9.82;;;9.00;43.70;;;;;;5114656;28;20056;-68
2022/03/03 10:05:47;;;;;;;15.05;8.07;;;9.00;43.80;;;;;;5114673;28;20016;-68
2022/03/03 10:08:21;;;;;;;18.63;10.02;;;9.00;45.20;;;;;;5114653;28;20031;-68
2022/03/03 10:10:53;;;;;;;20.58;9.93;;;9.10;46.30;;;;;;5114635;28;20038;-68
2022/03/03 10:13:19;;;;;;;17.92;9.48;;;9.10;43.70;;;;;;5114577;28;20039;-68
2022/03/03 10:15:50;;;;;;;18.65;9.32;;;9.10;44.70;;;;;;5114524;28;20363;-68
2022/03/03 10:18:17;;;;;;;18.60;10.30;;;9.20;44.00;;;;;;5114568;28;20086;-68
2022/03/03 10:20:50;;;;;;;17.48;9.65;;;9.30;43.90;;;;;;5114543;28;20024;-68
2022/03/03 10:23:17;;;;;;;17.75;10.45;;;9.40;43.70;;;;;;5114053;28;20020;-68
2022/03/03 10:25:45;;;;;;;16.85;9.63;;;9.40;42.50;;;;;;5114027;28;20027;-68
2022/03/03 10:28:13;;;;;;;20.40;9.13;;;9.50;44.00;;;;;;5114282;28;20024;-66
2022/03/03 10:31:02;;;;;;;22.45;10.85;;;9.60;42.00;;;;;;5114271;28;20048;-65
2022/03/03 10:33:33;;;;;;;18.40;9.05;;;9.80;42.80;;;;;;5114325;28;20039;-66
2022/03/03 10:36:03;;;;;;;16.25;9.23;;;9.70;40.90;;;;;;5114139;28;20035;-65
2022/03/03 10:38:30;;;;;;;17.90;9.32;;;9.80;43.70;;;;;;5114266;28;20028;-65
2022/03/03 10:40:56;;;;;;;19.58;9.15;;;9.90;41.30;;;;;;5114105;28;20054;-66
2022/03/03 10:43:22;;;;;;;17.27;9.60;;;9.90;42.20;;;;;;5113915;28;20024;-65
2022/03/03 10:45:59;;;;;;;14.98;8.70;;;10.10;41.20;;;;;;5113780;28;20017;-66
2022/03/03 10:48:26;;;;;;;15.50;8.80;;;10.20;40.20;;;;;;5113983;28;20052;-66
2022/03/03 10:50:54;;;;;;;16.73;9.27;;;10.20;40.00;;;;;;5095837;28;20016;-65
2022/03/03 10:53:22;;;;;;;18.00;9.68;;;10.30;42.20;;;;;;5113835;28;20025;-66
2022/03/03 10:56:05;;;;;;;15.93;9.15;;;10.40;40.10;;;;;;5113791;28;20032;-66
2022/03/03 10:58:47;;;;;;;16.50;9.90;;;10.50;39.90;;;;;;5113770;28;20024;-65
2022/03/03 11:01:13;;;;;;;17.47;9.23;;;10.70;39.50;;;;;;5113802;28;20031;-65
2022/03/03 11:03:40;;;;;;;19.88;10.00;;;10.80;40.20;;;;;;5113497;28;20768;-65
2022/03/03 11:06:09;;;;;;;19.45;10.02;;;10.80;40.20;;;;;;5113643;28;20034;-65
2022/03/03 11:08:35;;;;;;;14.77;8.40;;;10.90;39.50;;;;;;5113612;28;20032;-65
2022/03/03 11:11:03;;;;;;;16.20;9.45;;;11.00;40.20;;;;;;5113584;28;20016;-66
2022/03/03 11:13:28;;;;;;;16.85;9.32;;;11.10;40.30;;;;;;5113566;28;20028;-65
2022/03/03 11:15:55;;;;;;;16.13;8.65;;;11.20;39.30;;;;;;5113604;28;20055;-66
2022/03/03 11:18:22;;;;;;;17.50;9.20;;;11.20;38.90;;;;;;5113474;28;20035;-66
2022/03/03 11:20:51;;;;;;;19.42;8.88;;;11.30;39.20;;;;;;5113459;28;20028;-65
2022/03/03 11:23:17;;;;;;;17.83;9.07;;;11.40;40.30;;;;;;5113316;28;20028;-65
2022/03/03 11:25:45;;;;;;;16.60;9.15;;;11.50;40.00;;;;;;5113334;28;20080;-65
2022/03/03 11:28:15;;;;;;;13.82;8.27;;;11.50;36.80;;;;;;5113389;28;20501;-65
2022/03/03 11:30:46;;;;;;;16.25;9.27;;;11.50;35.40;;;;;;5113541;28;20031;-65
2022/03/03 11:33:33;;;;;;;16.02;8.88;;;11.40;36.50;;;;;;5113462;28;20103;-65
2022/03/03 11:36:08;;;;;;;15.20;7.95;;;11.50;38.60;;;;;;5114115;28;20046;-65
2022/03/03 11:38:44;;;;;;;15.40;8.85;;;11.60;36.80;;;;;;5117576;28;20016;-65
2022/03/03 11:41:11;;;;;;;16.02;8.77;;;11.60;35.80;;;;;;5117455;28;20084;-65
2022/03/03 11:43:48;;;;;;;14.52;9.00;;;11.60;37.40;;;;;;5117348;28;20127;-65
2022/03/03 11:46:47;;;;;;;14.70;8.20;;;11.70;37.30;;;;;;5117254;28;20059;-66
2022/03/03 11:49:18;;;;;;;12.50;7.95;;;11.90;37.70;;;;;;5117338;28;20025;-66
2022/03/03 11:51:44;;;;;;;14.32;8.57;;;12.00;37.50;;;;;;5117455;28;20012;-65
2022/03/03 11:54:11;;;;;;;15.57;8.55;;;12.20;37.50;;;;;;5117303;28;20024;-65
2022/03/03 11:57:08;;;;;;;12.30;8.02;;;12.20;36.90;;;;;;5117202;28;20028;-65
2022/03/03 11:59:36;;;;;;;12.70;8.18;;;12.30;37.40;;;;;;5117121;28;20505;-65
2022/03/03 12:02:02;;;;;;;12.38;7.45;;;12.40;34.70;;;;;;5117118;28;20024;-66
2022/03/03 12:04:28;;;;;;;13.57;8.43;;;12.30;35.00;;;;;;5116952;28;20035;-65
2022/03/03 12:06:55;;;;;;;15.02;8.48;;;12.40;34.30;;;;;;5117040;28;20024;-66
2022/03/03 12:09:24;;;;;;;15.15;8.80;;;12.50;34.50;;;;;;5099023;28;20028;-65
2022/03/03 12:12:19;;;;;;;13.10;7.45;;;12.50;33.10;;;;;;5117021;28;20073;-65
2022/03/03 12:14:54;;;;;;;12.70;8.13;;;12.50;35.60;;;;;;5116898;28;20055;-65
2022/03/03 12:17:46;;;;;;;14.27;8.45;;;12.50;35.20;;;;;;5116834;28;20032;-65
2022/03/03 12:20:23;;;;;;;12.98;7.50;;;12.60;35.10;;;;;;5116811;28;20050;-65
2022/03/03 12:23:08;;;;;;;14.40;7.57;;;12.70;36.80;;;;;;5116730;28;20043;-65
2022/03/03 12:25:51;;;;;;;16.05;8.48;;;12.90;36.90;;;;;;5116563;28;20024;-65
2022/03/03 12:28:17;;;;;;;14.23;9.07;;;13.00;36.40;;;;;;5116602;28;20058;-65
2022/03/03 12:30:45;;;;;;;14.77;9.27;;;13.00;37.30;;;;;;5116471;28;20046;-65
2022/03/03 12:33:28;;;;;;;12.38;8.05;;;13.10;36.50;;;;;;5116450;28;20020;-65
2022/03/03 12:36:07;;;;;;;14.23;7.82;;;13.20;35.70;;;;;;5116470;28;20020;-65
2022/03/03 12:38:34;;;;;;;19.38;9.65;;;13.10;33.90;;;;;;5116368;28;20028;-65
2022/03/03 12:40:59;;;;;;;17.77;9.55;;;13.00;34.40;;;;;;5116414;28;20024;-65
2022/03/03 12:43:25;;;;;;;16.08;9.80;;;13.00;36.50;;;;;;5116367;28;20115;-65
2022/03/03 12:45:52;;;;;;;16.75;9.75;;;13.20;36.60;;;;;;5116095;28;20024;-66